createdAt,value
2022-12-18T00:01:38.901Z,102622.47
2022-12-18T00:04:23.397Z,102619.66
2022-12-18T00:06:55.437Z,102624.97
2022-12-18T00:09:31.350Z,102612.66
2022-12-18T00:14:47.631Z,102632.28
2022-12-18T00:17:20.148Z,102633.94
2022-12-18T00:19:52.023Z,102624.97
2022-12-18T00:22:23.915Z,102615.06
2022-12-18T00:24:55.802Z,102610.34
2022-12-18T00:27:27.714Z,102597.84
2022-12-18T00:29:59.588Z,102593.88
2022-12-18T00:32:31.518Z,102591.19
2022-12-18T00:35:04.164Z,102573.56
2022-12-18T00:37:36.189Z,102573.25
2022-12-18T00:40:09.230Z,102586.13
2022-12-18T00:42:59.160Z,102586.13
2022-12-18T00:45:32.411Z,102582.78
2022-12-18T00:48:04.824Z,102574.13
2022-12-18T00:50:36.787Z,102572.56
2022-12-18T00:53:08.645Z,102580.63
2022-12-18T00:55:41.424Z,102580.97
2022-12-18T00:58:16.955Z,102578.22
2022-12-18T01:00:48.942Z,102578.97
2022-12-18T01:03:21.016Z,102557.94
2022-12-18T01:05:52.899Z,102583.44
2022-12-18T01:08:25.409Z,102600.16
2022-12-18T01:10:57.280Z,102595.59
2022-12-18T01:13:29.313Z,102590.31
2022-12-18T01:16:01.274Z,102606.13
2022-12-18T01:18:33.340Z,102613.53
2022-12-18T01:21:17.981Z,102608.22
2022-12-18T01:23:54.760Z,102609.13
2022-12-18T01:26:30.536Z,102607.28
2022-12-18T01:29:02.575Z,102603.97
2022-12-18T01:31:35.214Z,102602.28
2022-12-18T01:34:07.585Z,102601.97
2022-12-18T01:36:40.838Z,102600.56
2022-12-18T01:39:15.246Z,102601.28
2022-12-18T01:42:02.917Z,102595.94
2022-12-18T01:44:59.055Z,102598.19
2022-12-18T01:48:02.649Z,102602.28
2022-12-18T01:50:41.857Z,102595.78
2022-12-18T01:53:23.139Z,102580.41
2022-12-18T01:55:59.612Z,102590.13
2022-12-18T01:58:41.534Z,102594.78
2022-12-18T02:01:14.261Z,102594.59
2022-12-18T02:03:46.487Z,102594.25
2022-12-18T02:06:22.104Z,102588.03
2022-12-18T02:09:14.979Z,102584.41
2022-12-18T02:11:58.922Z,102570.47
2022-12-18T02:14:44.187Z,102575.63
2022-12-18T02:17:32.095Z,102579.28
2022-12-18T02:20:41.490Z,102578.19
2022-12-18T02:24:04.373Z,102576.03
2022-12-18T02:26:49.843Z,102583.34
2022-12-18T02:29:50.537Z,102580.78
2022-12-18T02:32:32.686Z,102583.16
2022-12-18T02:35:08.395Z,102584.41
2022-12-18T02:37:44.747Z,102579.28
2022-12-18T02:40:19.275Z,102579.84
2022-12-18T02:42:51.588Z,102578.94
2022-12-18T02:45:23.478Z,102566.84
2022-12-18T02:47:55.439Z,102553.97
2022-12-18T02:50:46.327Z,102560.19
2022-12-18T02:54:03.606Z,102543.47
2022-12-18T02:56:52.072Z,102550.44
2022-12-18T02:59:39.947Z,102556.00
2022-12-18T03:02:39.805Z,102560.63
2022-12-18T03:05:20.374Z,102555.16
2022-12-18T03:08:04.963Z,102479.03
2022-12-18T03:10:46.008Z,102537.53
2022-12-18T03:13:37.392Z,102541.94
2022-12-18T03:16:17.923Z,102532.56
2022-12-18T03:18:58.383Z,102526.50
2022-12-18T03:21:44.481Z,102533.22
2022-12-18T03:24:19.691Z,102539.13
2022-12-18T03:27:02.139Z,102532.72
2022-12-18T03:30:03.864Z,102537.53
2022-12-18T03:32:55.544Z,102533.53
2022-12-18T03:35:38.490Z,102535.94
2022-12-18T03:38:11.806Z,102542.34
2022-12-18T03:41:13.789Z,102501.50
2022-12-18T03:44:21.775Z,102543.97
2022-12-18T03:47:08.369Z,102536.25
2022-12-18T03:50:19.913Z,102534.28
2022-12-18T03:53:04.546Z,102534.09
2022-12-18T03:55:37.666Z,102516.84
2022-12-18T03:58:14.210Z,102519.22
2022-12-18T04:00:49.719Z,102513.75
2022-12-18T04:03:37.553Z,102506.03
2022-12-18T04:06:12.129Z,102503.69
2022-12-18T04:08:45.208Z,102499.09
2022-12-18T04:11:17.694Z,102498.06
2022-12-18T04:13:49.593Z,102487.44
2022-12-18T04:16:21.477Z,102491.66
2022-12-18T04:18:54.807Z,102449.22
2022-12-18T04:21:26.938Z,102487.09
2022-12-18T04:23:58.882Z,102482.88
2022-12-18T04:26:30.781Z,102474.25
2022-12-18T04:29:02.670Z,102478.28
2022-12-18T04:31:34.676Z,102476.47
2022-12-18T04:34:06.770Z,102482.69
2022-12-18T04:36:38.710Z,102486.91
2022-12-18T04:39:10.655Z,102496.47
2022-12-18T04:41:42.576Z,102497.94
2022-12-18T04:44:14.939Z,102498.13
2022-12-18T04:46:47.018Z,102484.91
2022-12-18T04:49:19.024Z,102499.19
2022-12-18T04:51:51.089Z,102507.69
2022-12-18T04:54:23.021Z,102516.47
2022-12-18T04:56:55.525Z,102517.97
2022-12-18T04:59:27.537Z,102516.13
2022-12-18T05:01:59.586Z,102525.69
2022-12-18T05:04:31.515Z,102512.50
2022-12-18T05:07:03.630Z,102514.28
2022-12-18T05:09:35.567Z,102512.50
2022-12-18T05:12:07.735Z,102517.63
2022-12-18T05:14:39.599Z,102526.22
2022-12-18T05:17:11.503Z,102521.84
2022-12-18T05:19:43.403Z,102522.78
2022-12-18T05:22:15.332Z,102522.34
2022-12-18T05:24:47.264Z,102516.47
2022-12-18T05:27:20.320Z,102517.41
2022-12-18T05:29:52.232Z,102499.19
2022-12-18T05:32:24.123Z,102511.31
2022-12-18T05:34:58.214Z,102500.13
2022-12-18T05:37:30.194Z,102501.03
2022-12-18T05:40:03.667Z,102506.53
2022-12-18T05:42:35.623Z,102496.81
2022-12-18T05:45:08.428Z,102502.13
2022-12-18T05:47:40.407Z,102501.22
2022-12-18T05:50:12.314Z,102498.66
2022-12-18T05:52:44.354Z,102493.91
2022-12-18T05:55:16.441Z,102500.50
2022-12-18T05:57:48.381Z,102498.19
2022-12-18T06:00:20.478Z,102478.75
2022-12-18T06:02:52.447Z,102488.28
2022-12-18T06:05:24.549Z,102484.28
2022-12-18T06:07:56.426Z,102485.03
2022-12-18T06:10:28.416Z,102486.88
2022-12-18T06:13:00.947Z,102481.72
2022-12-18T06:15:33.468Z,102488.13
2022-12-18T06:18:05.654Z,102487.53
2022-12-18T06:20:40.578Z,102490.50
2022-12-18T06:23:12.615Z,102493.28
2022-12-18T06:25:44.641Z,102490.50
2022-12-18T06:28:16.642Z,102484.69
2022-12-18T06:30:50.282Z,102494.19
2022-12-18T06:33:22.262Z,102493.81
2022-12-18T06:35:57.882Z,102490.50
2022-12-18T06:38:35.002Z,102489.44
2022-12-18T06:41:13.413Z,102492.75
2022-12-18T06:43:45.814Z,102479.53
2022-12-18T06:46:17.888Z,102484.28
2022-12-18T06:48:51.453Z,102481.72
2022-12-18T06:51:25.337Z,102466.16
2022-12-18T06:53:57.355Z,102473.66
2022-12-18T06:56:29.346Z,102468.00
2022-12-18T06:59:01.678Z,102474.22
2022-12-18T07:01:33.777Z,102475.53
2022-12-18T07:04:05.985Z,102464.22
2022-12-18T07:06:37.962Z,102480.72
2022-12-18T07:09:09.886Z,102480.56
2022-12-18T07:11:41.881Z,102476.00
2022-12-18T07:14:13.807Z,102459.44
2022-12-18T07:16:45.788Z,102455.22
2022-12-18T07:19:17.719Z,102455.41
2022-12-18T07:21:51.808Z,102431.63
2022-12-18T07:24:23.721Z,102440.88
2022-12-18T07:26:55.647Z,102428.22
2022-12-18T07:29:27.547Z,102419.97
2022-12-18T07:31:59.523Z,102421.81
2022-12-18T07:34:31.510Z,102410.50
2022-12-18T07:37:03.517Z,102415.06
2022-12-18T07:39:35.384Z,102418.38
2022-12-18T07:42:27.129Z,102423.84
2022-12-18T07:45:01.304Z,102412.50
2022-12-18T07:47:37.294Z,102407.50
2022-12-18T07:50:09.654Z,102396.88
2022-12-18T07:52:41.590Z,102389.94
2022-12-18T07:55:13.640Z,102386.13
2022-12-18T07:57:57.652Z,102380.44
2022-12-18T08:00:32.683Z,102384.66
2022-12-18T08:03:04.668Z,102376.03
2022-12-18T08:05:38.275Z,102383.03
2022-12-18T08:08:11.088Z,102386.50
2022-12-18T08:10:43.009Z,102394.16
2022-12-18T08:13:14.910Z,102392.34
2022-12-18T08:15:46.861Z,102387.53
2022-12-18T08:18:18.726Z,102381.59
2022-12-18T08:20:50.793Z,102380.44
2022-12-18T08:23:24.192Z,102392.56
2022-12-18T08:25:59.762Z,102386.16
2022-12-18T08:28:31.770Z,102398.03
2022-12-18T08:31:03.959Z,102386.84
2022-12-18T08:33:38.301Z,102391.78
2022-12-18T08:36:11.160Z,102387.38
2022-12-18T08:38:43.105Z,102394.34
2022-12-18T08:41:17.081Z,102402.41
2022-12-18T08:44:08.143Z,102385.47
2022-12-18T08:46:43.455Z,102379.19
2022-12-18T08:49:15.634Z,102345.69
2022-12-18T08:51:47.518Z,102367.41
2022-12-18T08:54:19.408Z,102356.53
2022-12-18T08:56:51.907Z,102366.59
2022-12-18T08:59:24.542Z,102366.59
2022-12-18T09:01:56.688Z,102363.44
2022-12-18T09:04:28.689Z,102354.81
2022-12-18T09:07:00.593Z,102355.47
2022-12-18T09:09:32.494Z,102350.50
2022-12-18T09:12:04.672Z,102368.13
2022-12-18T09:14:37.459Z,102376.34
2022-12-18T09:17:09.490Z,102373.78
2022-12-18T09:19:41.473Z,102383.63
2022-12-18T09:22:13.446Z,102382.91
2022-12-18T09:24:45.365Z,102392.38
2022-12-18T09:27:17.318Z,102379.25
2022-12-18T09:29:49.250Z,102383.06
2022-12-18T09:32:22.620Z,102370.13
2022-12-18T09:34:54.608Z,102359.41
2022-12-18T09:37:26.579Z,102365.97
2022-12-18T09:39:58.544Z,102355.09
2022-12-18T09:42:31.078Z,102357.59
2022-12-18T09:45:05.032Z,102347.84
2022-12-18T09:47:40.310Z,102353.84
2022-12-18T09:50:40.488Z,102351.25
2022-12-18T09:53:28.854Z,102342.53
2022-12-18T09:56:05.162Z,102321.69
2022-12-18T09:59:02.798Z,102319.84
2022-12-18T10:01:43.195Z,102325.03
2022-12-18T10:04:16.338Z,102327.28
2022-12-18T10:06:56.227Z,102340.91
2022-12-18T10:10:14.076Z,102339.25
2022-12-18T10:13:26.856Z,102341.22
2022-12-18T10:16:26.358Z,102342.47
2022-12-18T10:19:27.537Z,102334.63
2022-12-18T10:22:12.866Z,102331.63
2022-12-18T10:25:27.657Z,102331.94
2022-12-18T10:28:12.037Z,102329.50
2022-12-18T10:30:45.459Z,102321.03
2022-12-18T10:33:30.729Z,102313.47
2022-12-18T10:36:03.936Z,102304.69
2022-12-18T10:38:36.177Z,102300.78
2022-12-18T10:41:29.373Z,102286.97
2022-12-18T10:44:22.495Z,102287.59
2022-12-18T10:47:11.781Z,102267.56
2022-12-18T10:49:51.998Z,102281.56
2022-12-18T10:52:26.993Z,102276.31
2022-12-18T10:55:04.269Z,102274.47
2022-12-18T10:57:41.426Z,102270.72
2022-12-18T11:00:31.502Z,102246.25
2022-12-18T11:03:03.704Z,102243.53
2022-12-18T11:05:37.869Z,102247.06
2022-12-18T11:08:25.093Z,102247.66
2022-12-18T11:10:57.074Z,102246.13
2022-12-18T11:13:32.749Z,102247.81
2022-12-18T11:16:05.145Z,102254.50
2022-12-18T11:18:37.808Z,102248.69
2022-12-18T11:21:15.602Z,102257.84
2022-12-18T11:23:55.029Z,102253.88
2022-12-18T11:26:37.197Z,102243.44
2022-12-18T11:29:19.750Z,102229.91
2022-12-18T11:32:15.752Z,102225.97
2022-12-18T11:34:59.158Z,102228.72
2022-12-18T11:37:33.917Z,102219.47
2022-12-18T11:40:25.506Z,102230.38
2022-12-18T11:43:14.125Z,102224.78
2022-12-18T11:46:37.153Z,102222.06
2022-12-18T11:49:40.169Z,102224.34
2022-12-18T11:52:30.067Z,102220.88
2022-12-18T11:55:12.253Z,102218.56
2022-12-18T11:58:16.670Z,102210.38
2022-12-18T12:01:19.585Z,102209.78
2022-12-18T12:04:14.651Z,102207.19
2022-12-18T12:07:30.052Z,102202.44
2022-12-18T12:10:33.962Z,102194.25
2022-12-18T12:14:06.407Z,102177.72
2022-12-18T12:16:59.163Z,102175.91
2022-12-18T12:19:52.316Z,102182.56
2022-12-18T12:22:43.695Z,102170.41
2022-12-18T12:25:58.687Z,102181.06
2022-12-18T12:29:10.714Z,102169.06
2022-12-18T12:31:54.608Z,102163.28
2022-12-18T12:35:09.788Z,102148.84
2022-12-18T12:37:50.491Z,102153.38
2022-12-18T12:43:33.895Z,102140.00
2022-12-18T12:46:16.531Z,102134.84
2022-12-18T12:49:00.695Z,102127.09
2022-12-18T12:51:44.348Z,102116.28
2022-12-18T12:54:25.801Z,102126.63
2022-12-18T12:57:10.394Z,102125.69
2022-12-18T13:00:14.027Z,102117.50
2022-12-18T13:03:04.610Z,102105.78
2022-12-18T13:05:42.226Z,102112.31
2022-12-18T13:08:27.462Z,102104.69
2022-12-18T13:11:38.027Z,102099.50
2022-12-18T13:14:46.461Z,102084.66
2022-12-18T13:17:21.749Z,102087.63
2022-12-18T13:20:11.790Z,102070.63
2022-12-18T13:22:51.286Z,102092.34
2022-12-18T13:25:38.543Z,102085.63
2022-12-18T13:28:17.959Z,102081.25
2022-12-18T13:30:58.936Z,102090.03
2022-12-18T13:33:30.782Z,102092.47
2022-12-18T13:36:14.002Z,102090.78
2022-12-18T13:38:46.480Z,102089.56
2022-12-18T13:41:30.121Z,102092.44
2022-12-18T13:44:41.202Z,102093.75
2022-12-18T13:47:34.999Z,102088.91
2022-12-18T13:50:32.295Z,102068.22
2022-12-18T13:53:07.980Z,102066.53
2022-12-18T13:55:46.193Z,102048.78
2022-12-18T13:58:18.297Z,102063.75
2022-12-18T14:00:51.110Z,102063.16
2022-12-18T14:03:27.941Z,102057.97
2022-12-18T14:06:09.954Z,102062.84
2022-12-18T14:08:44.557Z,102024.19
2022-12-18T14:11:24.132Z,102060.84
2022-12-18T14:13:58.999Z,102061.88
2022-12-18T14:16:32.875Z,102051.22
2022-12-18T14:19:15.691Z,102064.00
2022-12-18T14:21:51.401Z,102059.75
2022-12-18T14:24:23.375Z,102062.44
2022-12-18T14:26:55.438Z,102056.78
2022-12-18T14:29:30.424Z,102056.66
2022-12-18T14:32:18.343Z,102048.47
2022-12-18T14:34:55.236Z,102057.88
2022-12-18T14:37:28.426Z,102058.47
2022-12-18T14:40:11.133Z,102055.75
2022-12-18T14:42:43.679Z,102050.31
2022-12-18T14:45:43.898Z,102049.22
2022-12-18T14:48:38.363Z,102056.03
2022-12-18T14:51:20.822Z,102046.44
2022-12-18T14:54:01.422Z,102043.88
2022-12-18T14:56:43.211Z,102053.56
2022-12-18T14:59:25.428Z,102048.41
2022-12-18T15:02:26.833Z,102059.53
2022-12-18T15:05:19.178Z,102049.31
2022-12-18T15:07:57.268Z,102024.16
2022-12-18T15:10:35.907Z,102051.16
2022-12-18T15:13:20.641Z,102043.09
2022-12-18T15:15:55.210Z,102046.59
2022-12-18T15:18:42.303Z,102038.69
2022-12-18T15:21:20.138Z,102033.53
2022-12-18T15:23:53.635Z,102017.72
2022-12-18T15:26:25.668Z,102002.88
2022-12-18T15:29:00.957Z,102030.72
2022-12-18T15:31:38.886Z,102024.53
2022-12-18T15:34:22.441Z,102026.03
2022-12-18T15:36:54.469Z,102025.56
2022-12-18T15:39:26.452Z,102024.81
2022-12-18T15:42:16.612Z,102026.47
2022-12-18T15:44:49.523Z,102021.94
2022-12-18T15:47:21.479Z,102019.47
2022-12-18T15:49:53.439Z,102014.31
2022-12-18T15:52:27.110Z,102004.88
2022-12-18T15:55:17.603Z,101999.69
2022-12-18T15:57:49.870Z,101993.13
2022-12-18T16:00:21.901Z,101983.91
2022-12-18T16:02:54.045Z,101979.50
2022-12-18T16:05:30.076Z,101990.53
2022-12-18T16:08:02.003Z,102002.72
2022-12-18T16:10:33.982Z,101999.22
2022-12-18T16:13:07.243Z,102001.81
2022-12-18T16:15:39.291Z,101987.69
2022-12-18T16:18:11.583Z,101987.69
2022-12-18T16:20:43.748Z,101981.38
2022-12-18T16:23:15.622Z,101968.94
2022-12-18T16:25:47.795Z,101971.78
2022-12-18T16:28:19.723Z,101960.03
2022-12-18T16:30:51.696Z,101960.19
2022-12-18T16:33:23.596Z,101960.97
2022-12-18T16:35:55.529Z,101965.22
2022-12-18T16:38:27.426Z,101953.41
2022-12-18T16:41:17.990Z,101955.50
2022-12-18T16:43:54.687Z,101950.81
2022-12-18T16:46:27.422Z,101941.28
2022-12-18T16:49:00.803Z,101937.41
2022-12-18T16:51:32.723Z,101946.06
2022-12-18T16:54:09.644Z,101936.66
2022-12-18T16:56:43.113Z,101938.16
2022-12-18T16:59:15.120Z,101940.91
2022-12-18T17:01:47.906Z,101933.00
2022-12-18T17:04:19.904Z,101928.88
2022-12-18T17:06:53.770Z,101925.38
2022-12-18T17:09:25.829Z,101924.75
2022-12-18T17:11:57.768Z,101916.72
2022-12-18T17:14:29.946Z,101928.88
2022-12-18T17:19:54.296Z,101915.31
2022-12-18T17:22:26.300Z,101917.91
2022-12-18T17:24:58.184Z,101940.41
2022-12-18T17:27:30.206Z,101943.91
2022-12-18T17:30:02.870Z,101936.16
2022-12-18T17:32:34.784Z,101939.00
2022-12-18T17:35:07.652Z,101929.97
2022-12-18T17:37:39.681Z,101931.03
2022-12-18T17:40:11.995Z,101941.78
2022-12-18T17:42:43.972Z,101941.78
2022-12-18T17:45:16.016Z,101937.28
2022-12-18T17:47:47.927Z,101931.41
2022-12-18T17:50:20.394Z,101931.56
2022-12-18T17:52:56.980Z,101930.94
2022-12-18T17:55:29.747Z,101932.59
2022-12-18T17:58:01.694Z,101928.50
2022-12-18T18:00:33.582Z,101928.75
2022-12-18T18:03:05.621Z,101909.41
2022-12-18T18:05:37.683Z,101932.66
2022-12-18T18:08:09.720Z,101935.22
2022-12-18T18:10:41.618Z,101937.22
2022-12-18T18:13:47.146Z,101928.38
2022-12-18T18:16:19.407Z,101936.56
2022-12-18T18:18:51.362Z,101933.31
2022-12-18T18:21:23.255Z,101931.28
2022-12-18T18:24:04.421Z,101931.00
2022-12-18T18:26:37.365Z,101919.53
2022-12-18T18:29:12.658Z,101918.22
2022-12-18T18:31:44.817Z,101921.31
2022-12-18T18:34:23.465Z,101923.38
2022-12-18T18:36:55.453Z,101918.47
2022-12-18T18:39:29.492Z,101906.78
2022-12-18T18:42:01.534Z,101913.56
2022-12-18T18:44:33.551Z,101919.00
2022-12-18T18:47:06.971Z,101924.19
2022-12-18T18:49:41.930Z,101914.31
2022-12-18T18:52:13.941Z,101916.91
2022-12-18T18:55:11.722Z,101923.66
2022-12-18T18:57:42.267Z,101926.75
2022-12-18T19:00:15.433Z,101931.28
2022-12-18T19:02:48.271Z,101921.44
2022-12-18T19:05:20.294Z,101927.00
2022-12-18T19:07:52.238Z,101924.69
2022-12-18T19:10:24.198Z,101923.28
2022-12-18T19:13:14.694Z,101917.19
2022-12-18T19:15:47.234Z,101913.81
2022-12-18T19:18:20.086Z,101896.59
2022-12-18T19:21:05.635Z,101912.56
2022-12-18T19:23:37.803Z,101916.19
2022-12-18T19:26:28.532Z,101918.13
2022-12-18T19:29:04.211Z,101921.50
2022-12-18T19:31:37.451Z,101922.66
2022-12-18T19:34:09.957Z,101929.38
2022-12-18T19:36:42.163Z,101922.53
2022-12-18T19:39:18.061Z,101931.34
2022-12-18T19:41:52.560Z,101920.44
2022-12-18T19:44:24.533Z,101928.38
2022-12-18T19:46:56.480Z,101937.66
2022-12-18T19:49:28.604Z,101917.19
2022-12-18T19:52:00.492Z,101931.19
2022-12-18T19:54:32.512Z,101926.50
2022-12-18T19:57:07.291Z,101929.50
2022-12-18T19:59:39.281Z,101931.19
2022-12-18T20:02:15.354Z,101928.44
2022-12-18T20:04:47.360Z,101938.69
2022-12-18T20:07:19.872Z,101936.09
2022-12-18T20:09:59.528Z,101930.50
2022-12-18T20:12:36.011Z,101933.25
2022-12-18T20:15:09.089Z,101935.31
2022-12-18T20:17:41.123Z,101925.75
2022-12-18T20:20:13.039Z,101921.19
2022-12-18T20:22:45.373Z,101922.88
2022-12-18T20:25:18.726Z,101919.41
2022-12-18T20:27:50.697Z,101919.50
2022-12-18T20:30:22.689Z,101919.78
2022-12-18T20:32:54.661Z,101921.47
2022-12-18T20:35:28.782Z,101923.16
2022-12-18T20:38:01.003Z,101914.28
2022-12-18T20:40:34.030Z,101925.59
2022-12-18T20:43:07.233Z,101924.41
2022-12-18T20:45:39.226Z,101915.75
2022-12-18T20:48:13.535Z,101911.47
2022-12-18T20:50:45.529Z,101912.66
2022-12-18T20:53:17.390Z,101906.56
2022-12-18T20:55:49.286Z,101903.97
2022-12-18T20:58:21.430Z,101898.28
2022-12-18T21:01:17.539Z,101901.66
2022-12-18T21:03:50.423Z,101884.06
2022-12-18T21:06:24.897Z,101894.94
2022-12-18T21:08:56.852Z,101888.19
2022-12-18T21:11:51.801Z,101884.09
2022-12-18T21:14:28.972Z,101878.66
2022-12-18T21:17:02.142Z,101875.25
2022-12-18T21:19:34.243Z,101877.34
2022-12-18T21:22:06.666Z,101875.00
2022-12-18T21:24:38.910Z,101866.47
2022-12-18T21:27:10.961Z,101871.00
2022-12-18T21:29:47.250Z,101854.94
2022-12-18T21:32:19.530Z,101853.00
2022-12-18T21:34:52.729Z,101865.16
2022-12-18T21:37:24.676Z,101858.03
2022-12-18T21:39:56.772Z,101851.03
2022-12-18T21:42:47.534Z,101857.38
2022-12-18T21:45:19.426Z,101857.66
2022-12-18T21:47:51.291Z,101843.94
2022-12-18T21:50:23.244Z,101848.47
2022-12-18T21:52:55.540Z,101849.38
2022-12-18T21:55:27.445Z,101854.56
2022-12-18T21:57:59.349Z,101844.19
2022-12-18T22:00:31.280Z,101839.69
2022-12-18T22:03:17.685Z,101833.84
2022-12-18T22:06:00.766Z,101828.66
2022-12-18T22:08:43.994Z,101812.50
2022-12-18T22:11:16.398Z,101807.44
2022-12-18T22:13:50.066Z,101799.66
2022-12-18T22:16:22.657Z,101791.13
2022-12-18T22:18:56.073Z,101798.38
2022-12-18T22:21:34.628Z,101793.97
2022-12-18T22:24:17.089Z,101790.47
2022-12-18T22:26:51.347Z,101788.03
2022-12-18T22:29:43.548Z,101773.25
2022-12-18T22:32:21.418Z,101767.06
2022-12-18T22:35:10.411Z,101767.56
2022-12-18T22:37:46.187Z,101756.53
2022-12-18T22:40:25.484Z,101756.81
2022-12-18T22:42:57.994Z,101748.25
2022-12-18T22:45:29.969Z,101744.75
2022-12-18T22:48:02.157Z,101746.44
2022-12-18T22:50:34.063Z,101733.38
2022-12-18T22:53:07.816Z,101726.88
2022-12-18T22:55:39.946Z,101728.44
2022-12-18T22:58:11.960Z,101725.44
2022-12-18T23:00:43.879Z,101720.41
2022-12-18T23:03:15.906Z,101725.84
2022-12-18T23:05:47.922Z,101723.34
2022-12-18T23:08:19.848Z,101731.13
2022-12-18T23:10:53.509Z,101711.22
2022-12-18T23:13:26.493Z,101724.00
2022-12-18T23:15:58.424Z,101724.25
2022-12-18T23:18:30.427Z,101716.72
2022-12-18T23:21:15.383Z,101702.22
2022-12-18T23:23:47.744Z,101694.69
2022-12-18T23:26:23.503Z,101679.38
2022-12-18T23:28:56.854Z,101682.75
2022-12-18T23:31:39.287Z,101680.97
2022-12-18T23:34:14.662Z,101678.38
2022-12-18T23:36:47.884Z,101689.09
2022-12-18T23:39:29.580Z,101671.31
2022-12-18T23:42:02.196Z,101664.81
2022-12-18T23:44:34.173Z,101654.88
2022-12-18T23:47:07.341Z,101671.81
2022-12-18T23:49:39.254Z,101664.28
2022-12-18T23:52:11.602Z,101659.09
2022-12-18T23:54:43.678Z,101634.66
2022-12-18T23:57:15.715Z,101643.00
2022-12-18T23:59:47.677Z,101626.97
